createdAt,value
2023-05-10T00:00:17.551Z,11.30
2023-05-10T00:05:17.410Z,11.26
2023-05-10T00:10:17.582Z,11.23
2023-05-10T00:15:17.302Z,11.19
2023-05-10T00:20:17.517Z,11.03
2023-05-10T00:25:17.224Z,10.98
2023-05-10T00:30:17.446Z,10.86
2023-05-10T00:35:17.136Z,10.78
2023-05-10T00:40:17.392Z,10.72
2023-05-10T00:45:17.106Z,10.66
2023-05-10T00:50:17.274Z,10.54
2023-05-10T00:55:17.006Z,10.42
2023-05-10T01:00:17.210Z,10.35
2023-05-10T01:05:17.092Z,10.28
2023-05-10T01:10:17.212Z,10.14
2023-05-10T01:15:16.911Z,10.02
2023-05-10T01:20:17.115Z,9.89
2023-05-10T01:25:16.868Z,9.74
2023-05-10T01:30:16.829Z,9.56
2023-05-10T01:35:16.813Z,9.41
2023-05-10T01:40:17.017Z,9.27
2023-05-10T01:45:16.716Z,9.06
2023-05-10T01:50:17.081Z,8.67
2023-05-10T01:55:16.665Z,8.61
2023-05-10T02:00:16.821Z,8.63
2023-05-10T02:05:16.616Z,8.52
2023-05-10T02:10:16.771Z,8.37
2023-05-10T02:15:16.567Z,8.27
2023-05-10T02:20:16.788Z,8.02
2023-05-10T02:25:16.545Z,7.99
2023-05-10T02:30:16.657Z,8.02
2023-05-10T02:35:16.481Z,8.02
2023-05-10T02:40:16.699Z,7.99
2023-05-10T02:45:16.405Z,8.02
2023-05-10T02:50:16.928Z,8.10
2023-05-10T02:55:16.333Z,8.17
2023-05-10T03:00:16.620Z,8.32
2023-05-10T03:05:16.244Z,8.58
2023-05-10T03:10:16.443Z,8.65
2023-05-10T03:15:16.202Z,8.61
2023-05-10T03:20:16.566Z,8.40
2023-05-10T03:25:16.161Z,8.12
2023-05-10T03:30:16.243Z,7.94
2023-05-10T03:35:16.098Z,7.74
2023-05-10T03:40:16.241Z,7.71
2023-05-10T03:45:16.033Z,7.67
2023-05-10T03:50:16.222Z,7.57
2023-05-10T03:55:15.930Z,7.54
2023-05-10T04:00:16.144Z,7.57
2023-05-10T04:05:15.846Z,7.76
2023-05-10T04:10:16.152Z,7.95
2023-05-10T04:15:15.772Z,8.10
2023-05-10T04:20:16.176Z,8.37
2023-05-10T04:25:15.729Z,8.67
2023-05-10T04:30:15.950Z,9.12
2023-05-10T04:35:15.666Z,9.31
2023-05-10T04:40:16.050Z,9.48
2023-05-10T04:45:15.624Z,9.62
2023-05-10T04:50:15.767Z,9.83
2023-05-10T04:55:15.618Z,10.02
2023-05-10T05:00:15.706Z,10.22
2023-05-10T05:05:15.628Z,10.44
2023-05-10T05:10:15.791Z,10.83
2023-05-10T05:15:15.565Z,11.06
2023-05-10T05:20:15.660Z,11.24
2023-05-10T05:25:15.403Z,11.46
2023-05-10T05:30:15.693Z,11.67
2023-05-10T05:35:15.577Z,11.82
2023-05-10T05:40:15.345Z,12.00
2023-05-10T05:45:15.373Z,12.05
2023-05-10T05:50:15.571Z,12.16
2023-05-10T05:55:15.388Z,12.40
2023-05-10T06:00:15.258Z,12.52
2023-05-10T06:05:15.413Z,12.74
2023-05-10T06:10:15.246Z,12.98
2023-05-10T06:15:15.285Z,13.09
2023-05-10T06:20:15.170Z,13.36
2023-05-10T06:25:15.244Z,13.55
2023-05-10T06:30:15.035Z,13.80
2023-05-10T06:35:15.195Z,13.88
2023-05-10T06:40:15.005Z,13.99
2023-05-10T06:45:15.097Z,14.11
2023-05-10T06:50:15.001Z,14.36
2023-05-10T06:55:15.106Z,14.61
2023-05-10T07:00:15.107Z,14.79
2023-05-10T07:05:14.829Z,15.18
2023-05-10T07:10:14.778Z,15.28
2023-05-10T07:15:14.956Z,16.26
2023-05-10T07:20:14.818Z,17.98
2023-05-10T07:25:15.137Z,20.71
2023-05-10T07:30:14.649Z,19.45
2023-05-10T07:35:14.783Z,18.90
2023-05-10T07:40:14.608Z,19.79
2023-05-10T07:45:14.732Z,20.66
2023-05-10T07:50:14.568Z,20.48
2023-05-10T07:55:14.614Z,21.40
2023-05-10T08:00:14.566Z,20.30
2023-05-10T08:05:14.769Z,20.82
2023-05-10T08:10:14.479Z,20.82
2023-05-10T08:15:14.685Z,21.49
2023-05-10T08:20:14.462Z,22.66
2023-05-10T08:25:14.409Z,22.45
2023-05-10T08:30:14.484Z,23.72
2023-05-10T08:35:14.419Z,22.70
2023-05-10T08:40:14.262Z,23.67
2023-05-10T08:45:14.406Z,24.11
2023-05-10T08:50:14.237Z,23.75
2023-05-10T08:55:14.297Z,24.04
2023-05-10T09:00:14.187Z,23.44
2023-05-10T09:05:14.231Z,25.29
2023-05-10T09:10:14.108Z,24.04
2023-05-10T09:15:14.206Z,22.59
2023-05-10T09:20:14.046Z,22.78
2023-05-10T09:25:14.309Z,22.74
2023-05-10T09:30:13.965Z,24.66
2023-05-10T09:35:14.102Z,26.04
2023-05-10T09:40:13.982Z,25.51
2023-05-10T09:45:14.072Z,23.86
2023-05-10T09:50:13.951Z,24.44
2023-05-10T09:55:14.173Z,25.66
2023-05-10T10:00:13.857Z,24.34
2023-05-10T10:05:14.049Z,25.71
2023-05-10T10:10:13.840Z,25.29
2023-05-10T10:15:15.973Z,24.71
2023-05-10T10:20:13.803Z,24.99
2023-05-10T10:25:13.724Z,24.29
2023-05-10T10:30:13.697Z,24.39
2023-05-10T10:35:13.770Z,24.99
2023-05-10T10:40:13.616Z,24.84
2023-05-10T10:45:13.636Z,24.19
2023-05-10T10:50:13.554Z,24.70
2023-05-10T10:55:13.714Z,22.17
2023-05-10T11:00:13.538Z,24.33
2023-05-10T11:05:13.502Z,23.84
2023-05-10T11:10:13.432Z,23.87
2023-05-10T11:15:13.449Z,24.11
2023-05-10T11:20:13.548Z,24.63
2023-05-10T11:25:14.043Z,25.05
2023-05-10T11:30:13.433Z,24.21
2023-05-10T11:35:13.292Z,23.34
2023-05-10T11:40:13.243Z,22.56
2023-05-10T11:45:13.310Z,23.19
2023-05-10T11:50:13.283Z,22.75
2023-05-10T11:55:13.206Z,22.63
2023-05-10T12:00:13.203Z,23.21
2023-05-10T12:05:13.197Z,22.33
2023-05-10T12:10:13.282Z,22.74
2023-05-10T12:15:13.105Z,22.33
2023-05-10T12:20:13.176Z,21.67
2023-05-10T12:25:13.058Z,22.42
2023-05-10T12:30:13.101Z,22.21
2023-05-10T12:35:13.060Z,21.94
2023-05-10T12:40:13.029Z,22.01
2023-05-10T12:45:13.226Z,22.21
2023-05-10T12:50:13.181Z,21.94
2023-05-10T12:55:12.926Z,21.73
2023-05-10T13:00:12.885Z,21.81
2023-05-10T13:05:12.875Z,21.55
2023-05-10T13:10:12.928Z,21.51
2023-05-10T13:15:12.804Z,21.37
2023-05-10T13:20:12.767Z,20.85
2023-05-10T13:25:12.793Z,21.08
2023-05-10T13:30:12.818Z,21.40
2023-05-10T13:35:12.687Z,21.61
2023-05-10T13:40:12.694Z,22.29
2023-05-10T13:45:13.199Z,21.66
2023-05-10T13:50:12.646Z,21.49
2023-05-10T13:55:12.610Z,21.59
2023-05-10T14:00:12.564Z,21.26
2023-05-10T14:05:12.915Z,20.87
2023-05-10T14:10:12.527Z,20.57
2023-05-10T14:15:12.489Z,20.33
2023-05-10T14:20:12.395Z,20.15
2023-05-10T14:25:12.373Z,20.13
2023-05-10T14:30:12.308Z,20.17
2023-05-10T14:35:13.585Z,19.98
2023-05-10T14:40:12.329Z,20.00
2023-05-10T14:45:12.304Z,19.94
2023-05-10T14:50:18.748Z,19.98
2023-05-10T14:55:12.143Z,19.62
2023-05-10T15:00:12.175Z,19.58
2023-05-10T15:05:12.089Z,19.57
2023-05-10T15:10:12.058Z,19.58
2023-05-10T15:15:12.074Z,19.39
2023-05-10T15:20:12.022Z,19.16
2023-05-10T15:25:11.963Z,19.05
2023-05-10T15:30:11.942Z,18.94
2023-05-10T15:35:11.934Z,18.82
2023-05-10T15:40:11.891Z,18.65
2023-05-10T15:45:11.858Z,18.32
2023-05-10T15:50:11.826Z,18.25
2023-05-10T15:55:11.790Z,18.26
2023-05-10T16:00:11.771Z,18.26
2023-05-10T16:05:11.735Z,17.99
2023-05-10T16:10:11.718Z,18.02
2023-05-10T16:15:11.694Z,18.02
2023-05-10T16:20:11.866Z,17.96
2023-05-10T16:25:13.368Z,17.79
2023-05-10T16:30:11.614Z,17.68
2023-05-10T16:35:11.579Z,17.55
2023-05-10T16:40:11.546Z,17.47
2023-05-10T16:45:11.577Z,17.46
2023-05-10T16:50:11.502Z,17.36
2023-05-10T16:55:11.445Z,17.21
2023-05-10T17:00:11.414Z,17.12
2023-05-10T17:05:11.376Z,17.22
2023-05-10T17:10:11.358Z,17.25
2023-05-10T17:15:11.371Z,17.22
2023-05-10T17:20:11.246Z,17.17
2023-05-10T17:25:11.246Z,17.06
2023-05-10T17:30:11.199Z,17.00
2023-05-10T17:35:11.188Z,16.91
2023-05-10T17:40:11.195Z,16.87
2023-05-10T17:45:11.127Z,16.82
2023-05-10T17:50:11.073Z,16.78
2023-05-10T17:55:11.421Z,16.75
2023-05-10T18:00:11.011Z,16.60
2023-05-10T18:05:11.030Z,16.62
2023-05-10T18:10:10.958Z,16.57
2023-05-10T18:15:11.455Z,16.57
2023-05-10T18:20:10.889Z,16.54
2023-05-10T18:25:10.873Z,16.40
2023-05-10T18:30:10.857Z,16.29
2023-05-10T18:35:10.851Z,16.30
2023-05-10T18:40:10.814Z,16.25
2023-05-10T18:45:10.733Z,16.17
2023-05-10T18:50:10.759Z,16.13
2023-05-10T18:55:10.673Z,16.06
2023-05-10T19:00:10.750Z,15.91
2023-05-10T19:05:10.664Z,15.81
2023-05-10T19:10:10.589Z,15.78
2023-05-10T19:15:10.538Z,15.77
2023-05-10T19:20:10.554Z,15.71
2023-05-10T19:25:10.906Z,15.71
2023-05-10T19:30:10.498Z,15.70
2023-05-10T19:35:10.383Z,15.67
2023-05-10T19:40:11.099Z,15.60
2023-05-10T19:45:10.323Z,15.49
2023-05-10T19:50:10.630Z,15.41
2023-05-10T19:55:10.803Z,15.41
2023-05-10T20:00:10.376Z,15.38
2023-05-10T20:05:10.249Z,15.34
2023-05-10T20:10:10.192Z,15.34
2023-05-10T20:15:10.129Z,15.33
2023-05-10T20:20:10.101Z,15.34
2023-05-10T20:25:10.125Z,15.37
2023-05-10T20:30:10.076Z,15.33
2023-05-10T20:35:10.028Z,15.28
2023-05-10T20:40:09.980Z,15.19
2023-05-10T20:45:09.992Z,15.15
2023-05-10T20:50:09.959Z,15.11
2023-05-10T20:55:09.932Z,15.07
2023-05-10T21:00:09.929Z,15.04
2023-05-10T21:05:09.927Z,15.00
2023-05-10T21:10:09.907Z,14.97
2023-05-10T21:15:09.910Z,14.95
2023-05-10T21:20:09.899Z,14.95
2023-05-10T21:25:09.819Z,14.86
2023-05-10T21:30:09.797Z,14.82
2023-05-10T21:35:09.753Z,14.79
2023-05-10T21:40:09.697Z,14.66
2023-05-10T21:45:09.711Z,14.63
2023-05-10T21:50:09.648Z,14.67
2023-05-10T21:55:09.642Z,14.74
2023-05-10T22:00:09.616Z,14.71
2023-05-10T22:05:09.569Z,14.71
2023-05-10T22:10:09.513Z,14.64
2023-05-10T22:15:10.704Z,14.61
2023-05-10T22:20:09.475Z,14.60
2023-05-10T22:25:09.472Z,14.57
2023-05-10T22:30:09.450Z,14.56
2023-05-10T22:35:09.440Z,14.49
2023-05-10T22:40:09.385Z,14.44
2023-05-10T22:45:09.363Z,14.41
2023-05-10T22:50:09.357Z,14.41
2023-05-10T22:55:09.314Z,14.44
2023-05-10T23:00:09.342Z,14.46
2023-05-10T23:05:09.287Z,14.53
2023-05-10T23:10:09.206Z,14.54
2023-05-10T23:15:09.189Z,14.59
2023-05-10T23:20:09.166Z,14.56
2023-05-10T23:25:09.152Z,14.45
2023-05-10T23:30:09.070Z,14.35
2023-05-10T23:35:09.061Z,14.35
2023-05-10T23:40:09.046Z,14.36
2023-05-10T23:45:09.045Z,14.31
2023-05-10T23:50:08.970Z,14.30
2023-05-10T23:55:08.987Z,14.26
